»·PEaware :: ASA877 KSFO-KLAX

ASA877 :: KSFO-KLAX

FLIGHT INFORMATION

Flight Status: Arrived
Operator:
Alaska Airlines
More flights by this operator :: More flights under this callsign
Pilot: Anthony T. (15846)
Aircraft: BOEING 737-800
(B738)
More flights by this aircraft type
Origin: KSFO San Francisco Intl
United States
Destination: KLAX Los Angeles Intl
United States
More flights between these airports :: More routes between these airports
Route: SSTIK4 EBAYE BURGL IRNMN2
File this flight plan on PilotEdge
Remarks:
Altitude:
(Current/Filed)
27,000ft
Speed:
(Current/Filed)
315kts
Departed: 02-Dec-19 03:15 PM
Arrived: 02-Dec-19 04:16 PM
Distance/Time
Traveled:
293nm/1:01
Distance/Time
To Go:
Arrived

Flight Plot

Page will automatically refresh every two minutes.

Flight plan parsing failed; only flown route is shown


Map Options




Map Legend


Flown Route
Filed Route
Departure Airport
Arrival Airport
Navaid (VOR, NDB)
Fix

Horizontal Profiles

Position Reports

Time Latitude Longitude Heading Altitude Ground
Speed
02-Dec-19 15:05 37.611683 -122.385971 34 31ft 0kts
02-Dec-19 15:06 37.611683 -122.385971 34 31ft 0kts
02-Dec-19 15:07 37.611683 -122.385971 34 31ft 0kts
02-Dec-19 15:08 37.611842 -122.386224 276 31ft 10kts
02-Dec-19 15:09 37.611321 -122.386340 117 31ft 0kts
02-Dec-19 15:10 37.611321 -122.386340 117 31ft 0kts
02-Dec-19 15:11 37.611321 -122.386339 117 31ft 0kts
02-Dec-19 15:12 37.609368 -122.383375 118 31ft 0kts
02-Dec-19 15:13 37.609669 -122.381787 31 31ft 35kts
02-Dec-19 15:14 37.653443 -122.364711 7 2571ft 229kts
02-Dec-19 15:15 37.716421 -122.394404 291 6138ft 284kts
02-Dec-19 15:16 37.684581 -122.461730 174 9371ft 267kts
02-Dec-19 15:17 37.610100 -122.452344 189 13017ft 295kts
02-Dec-19 15:18 37.522985 -122.468430 189 16873ft 326kts
02-Dec-19 15:19 37.443132 -122.411020 138 20464ft 357kts
02-Dec-19 15:20 37.376110 -122.319800 140 23934ft 350kts
02-Dec-19 15:21 37.309507 -122.229550 141 26899ft 352kts
02-Dec-19 15:22 37.234857 -122.128724 140 27080ft 433kts
02-Dec-19 15:23 37.146642 -122.009813 139 27043ft 473kts
02-Dec-19 15:24 37.056661 -121.888914 140 27020ft 472kts
02-Dec-19 15:25 36.966295 -121.768037 141 27123ft 470kts
02-Dec-19 15:26 36.880692 -121.654114 142 27200ft 470kts
02-Dec-19 15:27 36.791120 -121.535182 142 27147ft 469kts
02-Dec-19 15:28 36.701403 -121.416523 142 27149ft 470kts
02-Dec-19 15:29 36.612992 -121.299985 142 27133ft 468kts
02-Dec-19 15:30 36.522877 -121.181642 142 27136ft 468kts
02-Dec-19 15:31 36.433179 -121.064005 142 27130ft 472kts
02-Dec-19 15:32 36.346775 -120.940030 141 27123ft 475kts
02-Dec-19 15:33 36.259918 -120.815584 141 27117ft 477kts
02-Dec-19 15:34 36.174807 -120.694042 141 27117ft 476kts
02-Dec-19 15:35 36.088974 -120.571931 141 27117ft 476kts
02-Dec-19 15:36 36.001637 -120.448103 141 27116ft 476kts
02-Dec-19 15:37 35.914272 -120.324718 141 27107ft 475kts
02-Dec-19 15:38 35.816814 -120.221515 158 27131ft 451kts
02-Dec-19 15:39 35.709474 -120.140420 158 27122ft 449kts
02-Dec-19 15:40 35.602787 -120.059984 158 27119ft 449kts
02-Dec-19 15:41 35.495392 -119.979100 158 27118ft 449kts
02-Dec-19 15:42 35.388867 -119.899114 158 27115ft 449kts
02-Dec-19 15:43 35.282730 -119.818073 153 27039ft 458kts
02-Dec-19 15:44 35.180495 -119.722929 152 26126ft 459kts
02-Dec-19 15:45 35.078240 -119.627596 152 26139ft 460kts
02-Dec-19 15:46 34.975908 -119.532483 152 25992ft 455kts
02-Dec-19 15:47 34.875971 -119.441087 154 25424ft 437kts
02-Dec-19 15:48 34.782354 -119.357417 153 23409ft 403kts
02-Dec-19 15:49 34.691872 -119.277664 154 22984ft 401kts
02-Dec-19 15:50 34.603504 -119.200987 154 21583ft 370kts
02-Dec-19 15:51 34.523709 -119.131281 152 19186ft 348kts
02-Dec-19 15:52 34.446220 -119.062791 150 16475ft 340kts
02-Dec-19 15:53 34.370367 -118.995556 148 13830ft 333kts
02-Dec-19 15:54 34.296569 -118.930159 146 11964ft 311kts
02-Dec-19 15:55 34.231000 -118.871311 146 11986ft 283kts
02-Dec-19 15:56 34.167104 -118.812618 144 11982ft 286kts
02-Dec-19 15:57 34.107216 -118.747868 140 10180ft 281kts
02-Dec-19 15:58 34.050767 -118.686557 140 8990ft 260kts
02-Dec-19 15:59 34.024125 -118.605041 99 8019ft 268kts
02-Dec-19 16:00 34.015856 -118.517223 99 7055ft 241kts
02-Dec-19 16:01 34.013455 -118.437840 80 6453ft 246kts
02-Dec-19 16:03 34.024110 -118.358873 81 5947ft 219kts
02-Dec-19 16:04 34.031966 -118.289358 82 4963ft 208kts
02-Dec-19 16:05 34.039351 -118.218345 82 4964ft 213kts
02-Dec-19 16:06 34.047101 -118.147457 82 4966ft 213kts
02-Dec-19 16:07 34.056645 -118.076581 82 4961ft 212kts
02-Dec-19 16:08 34.027239 -118.034762 172 4957ft 190kts
02-Dec-19 16:09 33.977611 -118.037023 218 4977ft 185kts
02-Dec-19 16:10 33.966304 -118.096944 260 4769ft 185kts
02-Dec-19 16:11 33.960545 -118.154794 261 3844ft 162kts
02-Dec-19 16:12 33.955106 -118.208688 261 2988ft 161kts
02-Dec-19 16:13 33.949778 -118.261326 262 2123ft 153kts
02-Dec-19 16:14 33.944616 -118.311999 263 1293ft 152kts
02-Dec-19 16:15 33.939498 -118.362089 263 478ft 150kts
02-Dec-19 16:16 33.935689 -118.399260 265 115ft 13kts
02-Dec-19 16:17 33.936004 -118.406695 264 127ft 15kts
02-Dec-19 16:18 33.937665 -118.409108 355 127ft 1kts
02-Dec-19 16:19 33.938165 -118.405961 83 125ft 21kts
02-Dec-19 16:20 33.940489 -118.403171 352 120ft 9kts
02-Dec-19 16:20 33.941100 -118.403820 268 120ft 0kts

Navigation Log

Ident Type
Flight plan parsing failed, navigation log unavailable